createdAt,value
2017-09-07T00:02:11.384Z,72.69
2017-09-07T00:04:39.135Z,72.38
2017-09-07T00:07:06.714Z,72.23
2017-09-07T00:09:34.298Z,72.29
2017-09-07T00:12:01.887Z,72.39
2017-09-07T00:14:29.491Z,72.39
2017-09-07T00:16:57.079Z,72.18
2017-09-07T00:19:25.087Z,72.02
2017-09-07T00:21:52.714Z,72.47
2017-09-07T00:24:21.470Z,72.23
2017-09-07T00:26:49.144Z,72.37
2017-09-07T00:29:17.093Z,72.26
2017-09-07T00:31:44.642Z,71.80
2017-09-07T00:34:12.209Z,72.41
2017-09-07T00:36:39.821Z,72.12
2017-09-07T00:39:07.395Z,72.71
2017-09-07T00:41:34.989Z,72.79
2017-09-07T00:44:03.756Z,72.16
2017-09-07T00:46:31.345Z,72.47
2017-09-07T00:48:58.916Z,73.52
2017-09-07T00:51:26.503Z,73.03
2017-09-07T00:53:54.101Z,73.36
2017-09-07T00:56:21.629Z,72.89
2017-09-07T00:58:49.212Z,73.48
2017-09-07T01:01:17.219Z,73.23
2017-09-07T01:03:46.097Z,73.46
2017-09-07T01:06:13.675Z,73.12
2017-09-07T01:08:41.217Z,73.18
2017-09-07T01:11:08.819Z,73.13
2017-09-07T01:13:36.477Z,72.96
2017-09-07T01:16:04.041Z,73.55
2017-09-07T01:18:31.644Z,73.69
2017-09-07T01:20:59.210Z,73.32
2017-09-07T01:23:26.967Z,73.37
2017-09-07T01:25:54.554Z,73.54
2017-09-07T01:28:22.138Z,74.64
2017-09-07T01:30:49.718Z,74.25
2017-09-07T01:33:17.294Z,74.66
2017-09-07T01:35:44.889Z,74.47
2017-09-07T01:38:13.425Z,75.63
2017-09-07T01:40:42.030Z,75.76
2017-09-07T01:43:09.718Z,75.86
2017-09-07T01:45:37.327Z,75.79
2017-09-07T01:48:16.668Z,75.35
2017-09-07T01:50:44.651Z,75.17
2017-09-07T01:53:12.274Z,75.22
2017-09-07T01:55:39.845Z,76.22
2017-09-07T01:58:07.398Z,75.69
2017-09-07T02:00:34.980Z,76.07
2017-09-07T02:03:02.548Z,75.54
2017-09-07T02:05:30.344Z,75.35
2017-09-07T02:07:57.935Z,75.24
2017-09-07T02:10:25.532Z,75.97
2017-09-07T02:12:53.118Z,76.04
2017-09-07T02:15:20.676Z,76.08
2017-09-07T02:17:48.207Z,76.00
2017-09-07T02:20:15.834Z,76.23
2017-09-07T02:22:43.403Z,75.49
2017-09-07T02:25:10.969Z,75.12
2017-09-07T02:27:38.533Z,75.07
2017-09-07T02:30:06.102Z,75.48
2017-09-07T02:32:33.695Z,75.12
2017-09-07T02:35:01.297Z,74.81
2017-09-07T02:37:28.956Z,74.93
2017-09-07T02:39:56.530Z,75.23
2017-09-07T02:42:24.500Z,75.65
2017-09-07T02:44:52.105Z,74.91
2017-09-07T02:47:19.661Z,75.29
2017-09-07T02:49:47.274Z,75.19
2017-09-07T02:52:14.840Z,75.51
2017-09-07T02:54:42.416Z,75.67
2017-09-07T02:57:10.635Z,76.33
2017-09-07T02:59:38.844Z,76.15
2017-09-07T03:02:06.417Z,76.36
2017-09-07T03:04:33.980Z,76.33
2017-09-07T03:07:01.981Z,76.71
2017-09-07T03:09:30.534Z,76.26
2017-09-07T03:11:58.185Z,75.93
2017-09-07T03:14:25.838Z,76.16
2017-09-07T03:16:53.496Z,76.50
2017-09-07T03:19:21.049Z,75.37
2017-09-07T03:21:48.637Z,75.62
2017-09-07T03:24:16.400Z,76.50
2017-09-07T03:26:44.476Z,76.02
2017-09-07T03:29:12.032Z,75.64
2017-09-07T03:31:39.923Z,75.06
2017-09-07T03:34:07.493Z,75.59
2017-09-07T03:36:35.110Z,74.94
2017-09-07T03:39:02.717Z,75.60
2017-09-07T03:41:30.322Z,75.71
2017-09-07T03:43:57.901Z,75.61
2017-09-07T03:46:25.502Z,75.80
2017-09-07T03:48:53.059Z,75.43
2017-09-07T03:51:21.942Z,75.38
2017-09-07T03:53:49.987Z,75.50
2017-09-07T03:56:17.625Z,76.24
2017-09-07T03:58:45.209Z,75.86
2017-09-07T04:01:12.827Z,76.79
2017-09-07T04:03:42.370Z,77.15
2017-09-07T04:06:10.012Z,76.92
2017-09-07T04:08:37.602Z,76.57
2017-09-07T04:11:05.202Z,76.88
2017-09-07T04:13:33.070Z,76.10
2017-09-07T04:16:00.627Z,76.75
2017-09-07T04:18:29.002Z,77.04
2017-09-07T04:20:56.594Z,76.96
2017-09-07T04:23:24.163Z,77.23
2017-09-07T04:25:52.184Z,77.10
2017-09-07T04:28:19.903Z,77.16
2017-09-07T04:30:47.471Z,77.18
2017-09-07T04:33:15.049Z,76.85
2017-09-07T04:35:42.633Z,77.73
2017-09-07T04:38:10.262Z,77.64
2017-09-07T04:40:37.879Z,77.24
2017-09-07T04:43:05.438Z,77.74
2017-09-07T04:45:33.062Z,77.27
2017-09-07T04:48:00.666Z,77.23
2017-09-07T04:50:28.249Z,77.00
2017-09-07T04:52:55.833Z,77.03
2017-09-07T04:55:23.942Z,77.37
2017-09-07T04:57:52.240Z,77.82
2017-09-07T05:00:19.805Z,78.20
2017-09-07T05:02:47.411Z,78.35
2017-09-07T05:05:14.975Z,78.14
2017-09-07T05:07:42.916Z,77.85
2017-09-07T05:10:10.485Z,77.55
2017-09-07T05:12:38.074Z,77.96
2017-09-07T05:15:05.637Z,77.40
2017-09-07T05:17:33.251Z,77.67
2017-09-07T05:20:03.693Z,78.06
2017-09-07T05:22:31.293Z,78.00
2017-09-07T05:24:58.883Z,77.43
2017-09-07T05:27:26.470Z,77.75
2017-09-07T05:29:54.028Z,77.65
2017-09-07T05:32:22.683Z,78.17
2017-09-07T05:34:50.247Z,78.66
2017-09-07T05:37:17.813Z,79.15
2017-09-07T05:39:45.413Z,79.34
2017-09-07T05:42:12.975Z,79.20
2017-09-07T05:44:40.726Z,78.88
2017-09-07T05:47:08.293Z,79.00
2017-09-07T05:49:35.847Z,79.20
2017-09-07T05:54:37.546Z,79.08
2017-09-07T05:57:05.549Z,78.63
2017-09-07T05:59:34.786Z,80.17
2017-09-07T06:02:02.367Z,79.06
2017-09-07T06:04:30.489Z,79.80
2017-09-07T06:06:58.071Z,80.25
2017-09-07T06:09:25.608Z,80.19
2017-09-07T06:11:53.230Z,79.06
2017-09-07T06:14:20.795Z,80.42
2017-09-07T06:16:48.424Z,78.53
2017-09-07T06:19:16.030Z,78.73
2017-09-07T06:21:44.652Z,78.49
2017-09-07T06:24:12.399Z,79.50
2017-09-07T06:26:40.171Z,78.98
2017-09-07T06:29:07.754Z,77.75
2017-09-07T06:31:35.369Z,76.92
2017-09-07T06:34:03.056Z,75.98
2017-09-07T06:36:30.619Z,76.16
2017-09-07T06:38:58.188Z,75.45
2017-09-07T06:41:25.731Z,75.81
2017-09-07T06:43:53.300Z,75.43
2017-09-07T06:46:20.855Z,75.60
2017-09-07T06:48:48.434Z,75.14
2017-09-07T06:51:16.010Z,74.34
2017-09-07T06:53:43.593Z,74.54
2017-09-07T06:56:11.161Z,74.91
2017-09-07T06:58:38.745Z,74.01
2017-09-07T07:01:06.326Z,73.48
2017-09-07T07:03:34.088Z,73.83
2017-09-07T07:06:02.425Z,74.43
2017-09-07T07:08:29.989Z,72.96
2017-09-07T07:10:57.563Z,73.43
2017-09-07T07:13:25.135Z,72.62
2017-09-07T07:15:52.724Z,73.14
2017-09-07T07:18:20.290Z,72.41
2017-09-07T07:20:47.961Z,72.73
2017-09-07T07:23:15.547Z,73.11
2017-09-07T07:25:43.128Z,72.40
2017-09-07T07:28:10.733Z,72.17
2017-09-07T07:30:38.305Z,70.44
2017-09-07T07:33:05.849Z,69.84
2017-09-07T07:35:33.448Z,70.83
2017-09-07T07:38:01.011Z,70.13
2017-09-07T07:40:28.588Z,72.95
2017-09-07T07:42:56.228Z,69.98
2017-09-07T07:45:23.796Z,72.46
2017-09-07T07:47:51.370Z,71.47
2017-09-07T07:50:18.942Z,69.92
2017-09-07T07:52:46.495Z,70.55
2017-09-07T07:55:14.070Z,69.29
2017-09-07T07:57:41.638Z,68.92
2017-09-07T08:00:09.229Z,68.00
2017-09-07T08:02:36.797Z,69.55
2017-09-07T08:05:04.376Z,69.22
2017-09-07T08:07:31.955Z,69.84
2017-09-07T08:09:59.585Z,70.73
2017-09-07T08:12:27.158Z,71.90
2017-09-07T08:14:54.798Z,68.73
2017-09-07T08:17:22.359Z,70.12
2017-09-07T08:19:49.970Z,69.11
2017-09-07T08:22:17.554Z,67.27
2017-09-07T08:24:45.129Z,67.50
2017-09-07T08:27:12.729Z,68.41
2017-09-07T08:29:40.314Z,66.28
2017-09-07T08:32:07.889Z,67.31
2017-09-07T08:34:35.490Z,67.20
2017-09-07T08:37:03.065Z,68.02
2017-09-07T08:39:30.660Z,67.96
2017-09-07T08:41:58.209Z,68.34
2017-09-07T08:44:25.847Z,65.85
2017-09-07T08:46:53.501Z,67.75
2017-09-07T08:49:21.242Z,68.00
2017-09-07T08:51:48.906Z,67.54
2017-09-07T08:54:16.493Z,65.89
2017-09-07T08:56:44.053Z,67.25
2017-09-07T08:59:13.333Z,64.50
2017-09-07T09:01:40.906Z,66.83
2017-09-07T09:04:08.486Z,65.57
2017-09-07T09:06:36.066Z,66.52
2017-09-07T09:09:03.641Z,63.99
2017-09-07T09:11:31.230Z,64.91
2017-09-07T09:13:58.790Z,63.80
2017-09-07T09:16:26.386Z,63.30
2017-09-07T09:18:53.990Z,63.75
2017-09-07T09:21:21.599Z,64.40
2017-09-07T09:23:49.126Z,65.08
2017-09-07T09:26:16.773Z,64.46
2017-09-07T09:28:44.340Z,63.22
2017-09-07T09:31:11.935Z,63.33
2017-09-07T09:33:39.500Z,64.11
2017-09-07T09:36:07.236Z,64.48
2017-09-07T09:38:34.819Z,61.38
2017-09-07T09:41:02.386Z,62.08
2017-09-07T09:43:29.946Z,63.79
2017-09-07T09:45:57.564Z,59.98
2017-09-07T09:48:25.149Z,59.87
2017-09-07T09:50:53.631Z,62.59
2017-09-07T09:53:21.208Z,63.72
2017-09-07T09:55:48.845Z,62.27
2017-09-07T09:58:16.416Z,61.57
2017-09-07T10:00:44.027Z,62.45
2017-09-07T10:03:11.683Z,63.19
2017-09-07T10:05:40.844Z,60.18
2017-09-07T10:08:08.396Z,60.08
2017-09-07T10:10:36.001Z,61.82
2017-09-07T10:13:03.614Z,63.06
2017-09-07T10:15:31.650Z,61.36
2017-09-07T10:18:00.634Z,61.36
2017-09-07T10:20:29.370Z,61.55
2017-09-07T10:22:56.947Z,63.70
2017-09-07T10:25:24.550Z,59.63
2017-09-07T10:27:52.125Z,58.99
2017-09-07T10:30:20.072Z,60.49
2017-09-07T10:32:47.691Z,58.55
2017-09-07T10:35:15.243Z,61.00
2017-09-07T10:37:42.819Z,61.11
2017-09-07T10:40:10.420Z,61.92
2017-09-07T10:42:38.018Z,60.29
2017-09-07T10:45:05.585Z,59.07
2017-09-07T10:47:33.150Z,58.06
2017-09-07T10:50:00.754Z,57.31
2017-09-07T10:52:28.346Z,61.46
2017-09-07T10:54:55.974Z,58.14
2017-09-07T10:57:23.553Z,55.85
2017-09-07T10:59:51.140Z,57.60
2017-09-07T11:02:18.704Z,58.03
2017-09-07T11:04:46.282Z,56.56
2017-09-07T11:07:13.863Z,56.29
2017-09-07T11:09:41.554Z,56.79
2017-09-07T11:12:09.204Z,56.76
2017-09-07T11:14:36.788Z,57.15
2017-09-07T11:17:04.402Z,55.64
2017-09-07T11:19:31.960Z,56.73
2017-09-07T11:21:59.585Z,54.03
2017-09-07T11:24:27.105Z,54.19
2017-09-07T11:26:54.748Z,55.59
2017-09-07T11:29:22.308Z,51.87
2017-09-07T11:31:49.943Z,52.46
2017-09-07T11:34:17.504Z,55.14
2017-09-07T11:36:45.117Z,53.24
2017-09-07T11:39:12.685Z,52.26
2017-09-07T11:41:40.338Z,54.02
2017-09-07T11:44:07.891Z,53.47
2017-09-07T11:46:35.483Z,54.52
2017-09-07T11:49:03.051Z,50.83
2017-09-07T11:51:30.632Z,50.03
2017-09-07T11:53:58.189Z,50.97
2017-09-07T11:56:25.778Z,48.33
2017-09-07T11:58:53.411Z,51.46
2017-09-07T12:01:20.997Z,53.14
2017-09-07T12:03:48.583Z,50.25
2017-09-07T12:06:16.164Z,51.22
2017-09-07T12:08:43.744Z,52.93
2017-09-07T12:11:11.329Z,51.40
2017-09-07T12:13:38.936Z,51.00
2017-09-07T12:16:06.506Z,50.94
2017-09-07T12:18:34.096Z,49.87
2017-09-07T12:21:01.742Z,52.00
2017-09-07T12:23:29.346Z,50.88
2017-09-07T12:25:56.914Z,49.69
2017-09-07T12:28:24.504Z,52.77
2017-09-07T12:30:53.796Z,54.03
2017-09-07T12:33:21.363Z,56.87
2017-09-07T12:35:50.118Z,54.39
2017-09-07T12:38:17.715Z,52.44
2017-09-07T12:40:45.262Z,53.63
2017-09-07T12:43:13.035Z,51.41
2017-09-07T12:45:40.593Z,52.18
2017-09-07T12:48:08.168Z,52.69
2017-09-07T12:50:35.756Z,50.75
2017-09-07T12:53:03.356Z,51.74
2017-09-07T12:55:30.969Z,49.32
2017-09-07T12:57:58.544Z,51.50
2017-09-07T13:00:26.224Z,52.42
2017-09-07T13:02:53.792Z,53.76
2017-09-07T13:05:21.427Z,55.24
2017-09-07T13:07:49.007Z,55.05
2017-09-07T13:10:16.570Z,57.24
2017-09-07T13:12:44.170Z,57.45
2017-09-07T13:15:11.911Z,55.52
2017-09-07T13:17:39.502Z,53.61
2017-09-07T13:20:07.158Z,54.35
2017-09-07T13:22:34.742Z,52.81
2017-09-07T13:25:02.282Z,51.75
2017-09-07T13:27:29.872Z,53.14
2017-09-07T13:29:57.456Z,52.76
2017-09-07T13:32:25.042Z,54.63
2017-09-07T13:34:52.660Z,53.13
2017-09-07T13:37:20.253Z,52.86
2017-09-07T13:39:47.875Z,54.03
2017-09-07T13:42:15.426Z,53.64
2017-09-07T13:44:43.145Z,56.00
2017-09-07T13:47:10.736Z,54.87
2017-09-07T13:49:38.319Z,50.19
2017-09-07T13:52:05.968Z,49.73
2017-09-07T13:54:35.699Z,49.65
2017-09-07T13:57:03.372Z,52.05
2017-09-07T13:59:30.959Z,51.66
2017-09-07T14:01:58.519Z,51.67
2017-09-07T14:04:26.125Z,54.86
2017-09-07T14:06:53.972Z,52.03
2017-09-07T14:09:21.575Z,53.15
2017-09-07T14:11:49.368Z,51.55
2017-09-07T14:14:17.112Z,53.85
2017-09-07T14:16:44.688Z,52.47
2017-09-07T14:19:12.295Z,53.21
2017-09-07T14:21:39.921Z,52.72
2017-09-07T14:24:07.531Z,52.81
2017-09-07T14:26:35.290Z,53.64
2017-09-07T14:29:02.889Z,52.78
2017-09-07T14:31:30.458Z,52.69
2017-09-07T14:33:58.086Z,50.85
2017-09-07T14:36:25.675Z,53.39
2017-09-07T14:38:53.306Z,49.54
2017-09-07T14:41:20.909Z,48.42
2017-09-07T14:43:48.496Z,47.68
2017-09-07T14:46:16.059Z,49.07
2017-09-07T14:48:43.658Z,52.14
2017-09-07T14:51:11.416Z,51.76
2017-09-07T14:53:39.003Z,51.85
2017-09-07T14:56:07.860Z,48.90
2017-09-07T14:58:35.488Z,45.08
2017-09-07T15:01:03.076Z,46.93
2017-09-07T15:03:30.694Z,50.92
2017-09-07T15:05:58.267Z,48.68
2017-09-07T15:08:25.916Z,47.08
2017-09-07T15:10:53.569Z,43.42
2017-09-07T15:13:21.172Z,44.71
2017-09-07T15:15:48.786Z,45.50
2017-09-07T15:18:16.378Z,46.61
2017-09-07T15:20:43.988Z,44.66
2017-09-07T15:23:11.571Z,46.35
2017-09-07T15:25:39.141Z,46.12
2017-09-07T15:28:06.700Z,49.33
2017-09-07T15:30:34.292Z,45.73
2017-09-07T15:33:01.825Z,48.30
2017-09-07T15:35:29.492Z,47.85
2017-09-07T15:37:57.107Z,47.51
2017-09-07T15:40:25.602Z,49.78
2017-09-07T15:42:53.183Z,50.23
2017-09-07T15:45:20.767Z,49.79
2017-09-07T15:47:48.784Z,50.84
2017-09-07T15:50:16.377Z,51.20
2017-09-07T15:52:44.037Z,51.79
2017-09-07T15:55:11.601Z,52.06
2017-09-07T15:57:40.646Z,53.85
2017-09-07T16:00:08.259Z,52.33
2017-09-07T16:02:35.819Z,52.41
2017-09-07T16:05:03.390Z,51.85
2017-09-07T16:07:30.967Z,51.66
2017-09-07T16:09:58.563Z,51.69
2017-09-07T16:12:26.203Z,52.29
2017-09-07T16:14:53.792Z,50.93
2017-09-07T16:17:21.538Z,50.26
2017-09-07T16:19:49.141Z,51.54
2017-09-07T16:22:16.761Z,51.05
2017-09-07T16:24:44.798Z,53.03
2017-09-07T16:27:12.366Z,53.99
2017-09-07T16:29:39.940Z,52.56
2017-09-07T16:32:07.530Z,54.96
2017-09-07T16:34:36.384Z,54.28
2017-09-07T16:37:04.012Z,54.36
2017-09-07T16:39:31.599Z,56.17
2017-09-07T16:41:59.285Z,54.70
2017-09-07T16:44:26.862Z,54.91
2017-09-07T16:46:54.769Z,56.29
2017-09-07T16:49:22.323Z,56.04
2017-09-07T16:51:49.909Z,55.88
2017-09-07T16:54:17.590Z,57.18
2017-09-07T16:56:45.279Z,57.30
2017-09-07T16:59:13.202Z,57.97
2017-09-07T17:01:40.906Z,57.98
2017-09-07T17:04:08.510Z,56.95
2017-09-07T17:06:36.094Z,57.50
2017-09-07T17:09:03.680Z,60.07
2017-09-07T17:11:32.581Z,59.53
2017-09-07T17:14:00.312Z,59.59
2017-09-07T17:16:27.910Z,60.04
2017-09-07T17:18:55.749Z,60.02
2017-09-07T17:21:23.338Z,60.56
2017-09-07T17:24:25.912Z,60.28
2017-09-07T17:26:53.546Z,60.90
2017-09-07T17:29:21.408Z,62.30
2017-09-07T17:31:50.386Z,60.75
2017-09-07T17:34:17.938Z,61.46
2017-09-07T17:36:45.535Z,60.83
2017-09-07T17:39:13.774Z,61.86
2017-09-07T17:41:41.472Z,62.49
2017-09-07T17:44:09.045Z,62.57
2017-09-07T17:46:36.657Z,63.21
2017-09-07T17:49:04.240Z,63.66
2017-09-07T17:51:31.915Z,66.34
2017-09-07T17:53:59.482Z,64.30
2017-09-07T17:56:27.301Z,65.06
2017-09-07T17:58:54.882Z,64.40
2017-09-07T18:01:22.460Z,64.40
2017-09-07T18:03:50.034Z,64.70
2017-09-07T18:06:17.607Z,64.70
2017-09-07T18:08:45.185Z,65.41
2017-09-07T18:11:12.770Z,66.57
2017-09-07T18:13:40.370Z,67.10
2017-09-07T18:16:07.944Z,67.92
2017-09-07T18:18:35.513Z,68.56
2017-09-07T18:21:03.121Z,69.62
2017-09-07T18:23:30.719Z,70.53
2017-09-07T18:25:58.293Z,69.63
2017-09-07T18:28:25.884Z,71.37
2017-09-07T18:30:53.445Z,70.54
2017-09-07T18:33:21.045Z,70.82
2017-09-07T18:35:48.605Z,70.79
2017-09-07T18:38:16.565Z,71.18
2017-09-07T18:40:45.381Z,72.02
2017-09-07T18:43:12.993Z,71.01
2017-09-07T18:45:40.587Z,71.91
2017-09-07T18:48:08.216Z,71.78
2017-09-07T18:50:35.776Z,72.18
2017-09-07T18:53:03.388Z,72.63
2017-09-07T18:55:30.975Z,72.75
2017-09-07T18:57:58.552Z,73.32
2017-09-07T19:00:26.149Z,73.21
2017-09-07T19:02:54.384Z,73.68
2017-09-07T19:05:22.115Z,74.28
2017-09-07T19:07:49.698Z,74.59
2017-09-07T19:10:17.331Z,75.90
2017-09-07T19:12:44.960Z,75.41
2017-09-07T19:15:12.534Z,75.92
2017-09-07T19:17:40.199Z,76.54
2017-09-07T19:20:07.840Z,77.03
2017-09-07T19:22:35.515Z,77.54
2017-09-07T19:25:03.129Z,77.35
2017-09-07T19:27:30.694Z,78.00
2017-09-07T19:29:58.298Z,78.40
2017-09-07T19:32:25.858Z,78.28
2017-09-07T19:34:53.467Z,78.38
2017-09-07T19:37:21.202Z,78.42
2017-09-07T19:39:48.766Z,77.87
2017-09-07T19:42:16.474Z,78.06
2017-09-07T19:44:44.087Z,78.72
2017-09-07T19:47:11.757Z,78.51
2017-09-07T19:49:39.453Z,78.31
2017-09-07T19:52:07.101Z,78.50
2017-09-07T19:54:34.803Z,78.59
2017-09-07T19:57:02.388Z,78.56
2017-09-07T19:59:30.085Z,78.69
2017-09-07T20:01:57.690Z,78.18
2017-09-07T20:04:25.763Z,78.01
2017-09-07T20:06:53.446Z,78.48
2017-09-07T20:09:21.032Z,78.45
2017-09-07T20:11:48.667Z,79.49
2017-09-07T20:14:16.275Z,79.61
2017-09-07T20:16:43.860Z,80.37
2017-09-07T20:19:11.445Z,80.91
2017-09-07T20:21:39.032Z,80.32
2017-09-07T20:24:06.625Z,81.00
2017-09-07T20:26:34.373Z,81.33
2017-09-07T20:29:01.944Z,81.34
2017-09-07T20:31:29.527Z,81.48
2017-09-07T20:33:57.154Z,81.53
2017-09-07T20:36:24.764Z,81.79
2017-09-07T20:38:52.386Z,81.59
2017-09-07T20:41:19.952Z,81.48
2017-09-07T20:43:47.557Z,80.45
2017-09-07T20:46:15.126Z,81.33
2017-09-07T20:48:43.140Z,81.10
2017-09-07T20:51:10.879Z,81.24
2017-09-07T20:53:38.543Z,80.94
2017-09-07T20:56:06.139Z,81.47
2017-09-07T20:58:33.721Z,81.64
2017-09-07T21:01:01.320Z,81.58
2017-09-07T21:03:28.990Z,80.74
2017-09-07T21:05:56.576Z,81.43
2017-09-07T21:08:25.095Z,81.53
2017-09-07T21:10:52.714Z,80.75
2017-09-07T21:13:20.296Z,80.44
2017-09-07T21:15:47.898Z,80.46
2017-09-07T21:18:15.456Z,80.37
2017-09-07T21:20:43.048Z,80.82
2017-09-07T21:23:10.623Z,80.02
2017-09-07T21:25:38.234Z,80.43
2017-09-07T21:28:05.810Z,81.11
2017-09-07T21:30:33.402Z,81.01
2017-09-07T21:33:00.991Z,80.89
2017-09-07T21:35:28.567Z,80.73
2017-09-07T21:37:56.155Z,81.21
2017-09-07T21:40:23.773Z,81.20
2017-09-07T21:42:51.368Z,81.34
2017-09-07T21:45:18.949Z,81.37
2017-09-07T21:47:46.665Z,81.52
2017-09-07T21:50:14.266Z,81.68
2017-09-07T21:52:41.826Z,81.72
2017-09-07T21:55:09.422Z,81.90
2017-09-07T21:57:37.026Z,81.45
2017-09-07T22:00:04.755Z,80.61
2017-09-07T22:02:32.330Z,81.08
2017-09-07T22:04:59.933Z,81.79
2017-09-07T22:07:27.489Z,82.25
2017-09-07T22:09:55.695Z,82.20
2017-09-07T22:12:23.260Z,82.99
2017-09-07T22:14:50.867Z,83.04
2017-09-07T22:17:18.424Z,83.21
2017-09-07T22:19:46.085Z,82.92
2017-09-07T22:22:13.678Z,83.19
2017-09-07T22:24:41.408Z,83.13
2017-09-07T22:27:08.988Z,82.83
2017-09-07T22:29:36.529Z,82.69
2017-09-07T22:32:04.147Z,82.42
2017-09-07T22:34:31.699Z,82.80
2017-09-07T22:36:59.303Z,82.58
2017-09-07T22:39:26.887Z,82.60
2017-09-07T22:41:54.488Z,82.39
2017-09-07T22:44:22.028Z,81.88
2017-09-07T22:46:49.573Z,81.93
2017-09-07T22:49:17.139Z,82.13
2017-09-07T22:51:44.724Z,82.17
2017-09-07T22:54:12.301Z,81.55
2017-09-07T22:56:39.994Z,81.68
2017-09-07T22:59:07.616Z,81.91
2017-09-07T23:01:36.811Z,81.86
2017-09-07T23:04:05.832Z,82.01
2017-09-07T23:06:33.415Z,82.34
2017-09-07T23:09:00.967Z,82.48
2017-09-07T23:11:28.528Z,82.26
2017-09-07T23:13:56.125Z,82.17
2017-09-07T23:16:23.702Z,82.02
2017-09-07T23:18:51.613Z,81.98
2017-09-07T23:21:19.172Z,81.92
2017-09-07T23:23:46.791Z,82.60
2017-09-07T23:26:14.438Z,82.99
2017-09-07T23:28:42.029Z,83.53
2017-09-07T23:31:09.647Z,83.52
2017-09-07T23:33:37.215Z,83.82
2017-09-07T23:36:05.145Z,84.10
2017-09-07T23:38:32.713Z,83.96
2017-09-07T23:41:00.405Z,84.15
2017-09-07T23:43:28.160Z,84.33
2017-09-07T23:45:55.721Z,84.46
2017-09-07T23:48:23.336Z,84.93
2017-09-07T23:50:50.918Z,84.76
2017-09-07T23:53:18.730Z,84.92
2017-09-07T23:55:46.290Z,84.90
2017-09-07T23:58:13.852Z,85.01
